EW9686 Weather Reports


Display with metric or nautical units.
time (UTC)temp
F
wind
direction
speed
MPH
gust
MPH
rain 1hr
in
rain 24hr
in
rain mn
in
humidity
%
barometer
mb
20181018235522 42 0.0 0.0 0.00 0.00 0.00 68 1027.1
20181018234522 43 0.0 1.0 0.00 0.00 0.00 67 1027.1
20181018233522 43 0.0 1.0 0.00 0.00 0.00 66 1027.1
20181018232522 43 0.0 1.0 0.00 0.00 0.00 66 1027.1
20181018231522 43 0.0 1.0 0.00 0.00 0.00 65 1027.0
20181018230522 44 0.0 1.0 0.00 0.00 0.00 63 1027.0
20181018225517 44 0.0 2.0 0.00 0.00 0.00 61 1026.8
20181018224522 45 0.0 1.0 0.00 0.00 0.00 60 1026.8
20181018223522 46 0.0 3.0 0.00 0.00 0.00 58 1026.5
20181018222522 47 270 1.0 3.0 0.00 0.00 0.00 55 1026.5
20181018221522 47 292 1.0 6.0 0.00 0.00 0.00 51 1026.5
20181018220522 48 292 2.0 8.0 0.00 0.00 0.00 49 1026.5
20181018215522 49 270 2.0 6.0 0.00 0.00 0.00 48 1026.4
20181018214517 49 292 5.0 11.0 0.00 0.00 0.00 46 1026.2
20181018213522 50 292 3.0 11.0 0.00 0.00 0.00 46 1026.1
20181018212522 50 270 5.0 10.0 0.00 0.00 0.00 44 1026.2
20181018211522 50 292 5.0 11.0 0.00 0.00 0.00 44 1026.1
20181018210522 50 270 6.0 10.0 0.00 0.00 0.00 42 1026.1
20181018205522 50 292 7.0 15.0 0.00 0.00 0.00 41 1026.1
20181018204522 51 270 6.0 13.0 0.00 0.00 0.00 41 1026.0
20181018203517 51 270 6.0 14.0 0.00 0.00 0.00 42 1026.0
20181018202522 51 270 5.0 13.0 0.00 0.00 0.00 42 1026.0
20181018201522 50 292 7.0 13.0 0.00 0.00 0.00 40 1026.0
20181018200522 51 292 6.0 12.0 0.00 0.00 0.00 41 1026.0
20181018195520 51 270 6.0 12.0 0.00 0.00 0.00 39 1026.0
20181018194522 51 292 4.0 10.0 0.00 0.00 0.00 42 1026.1
20181018193522 50 292 5.0 14.0 0.00 0.00 0.00 40 1026.1
20181018192517 50 292 7.0 14.0 0.00 0.00 0.00 39 1026.1
20181018191522 50 292 7.0 16.0 0.00 0.00 0.00 42 1026.1
20181018190522 50 292 9.0 16.0 0.00 0.00 0.00 40 1026.2
20181018185522 49 292 9.0 16.0 0.00 0.00 0.00 40 1026.3
20181018184523 50 292 9.0 18.0 0.00 0.00 0.00 39 1026.5
20181018183522 49 292 8.0 14.0 0.00 0.00 0.00 41 1026.4
20181018182517 50 270 6.0 13.0 0.00 0.00 0.00 39 1026.6
20181018181517 50 270 6.0 13.0 0.00 0.00 0.00 40 1026.7
20181018180522 49 270 7.0 16.0 0.00 0.00 0.00 41 1026.7
20181018175522 49 292 7.0 22.0 0.00 0.00 0.00 41 1026.7
20181018174521 49 247 7.0 15.0 0.00 0.00 0.00 42 1026.8
20181018173522 49 292 6.0 16.0 0.00 0.00 0.00 42 1026.8
20181018172522 49 292 7.0 18.0 0.00 0.00 0.00 44 1027.0
20181018171517 48 292 6.0 16.0 0.00 0.00 0.00 44 1027.0
20181018170517 48 292 5.0 14.0 0.00 0.00 0.00 43 1027.1
20181018165522 47 292 7.0 15.0 0.00 0.00 0.00 43 1027.2
20181018164522 47 292 8.0 20.0 0.00 0.00 0.00 44 1027.4
20181018163521 47 292 6.0 13.0 0.00 0.00 0.00 43 1027.5
20181018162522 47 247 6.0 11.0 0.00 0.00 0.00 42 1027.6
20181018161524 47 292 5.0 11.0 0.00 0.00 0.00 45 1027.6
20181018160517 46 292 8.0 20.0 0.00 0.00 0.00 44 1027.6
20181018155522 46 292 5.0 12.0 0.00 0.00 0.00 44 1027.7
20181018154521 46 292 6.0 14.0 0.00 0.00 0.00 44 1027.7
20181018153522 46 292 8.0 20.0 0.00 0.00 0.00 44 1027.6
20181018152525 45 292 8.0 20.0 0.00 0.00 0.00 45 1027.6
20181018151522 45 292 7.0 15.0 0.00 0.00 0.00 45 1027.6
20181018150522 46 292 6.0 20.0 0.00 0.00 0.00 47 1027.6
20181018145517 45 292 7.0 19.0 0.00 0.00 0.00 47 1027.7
20181018144522 45 292 6.0 12.0 0.00 0.00 0.00 46 1027.7
20181018143522 45 292 5.0 15.0 0.00 0.00 0.00 47 1027.6
20181018142522 44 292 6.0 15.0 0.00 0.00 0.00 48 1027.6
20181018141522 44 292 10.0 20.0 0.00 0.00 0.00 47 1027.5
20181018140522 44 292 8.0 14.0 0.00 0.00 0.00 49 1027.5
20181018135522 44 292 7.0 15.0 0.00 0.00 0.00 50 1027.6
20181018134517 44 292 7.0 18.0 0.00 0.00 0.00 53 1027.4
20181018133522 44 292 6.0 14.0 0.00 0.00 0.00 54 1027.4
20181018132522 43 292 6.0 21.0 0.00 0.00 0.00 53 1027.1
20181018131522 43 292 6.0 16.0 0.00 0.00 0.00 56 1027.1
20181018130520 43 292 6.0 15.0 0.00 0.00 0.00 58 1026.9
20181018125522 43 292 2.0 6.0 0.00 0.00 0.00 66 1027.0
20181018124517 42 292 2.0 6.0 0.00 0.00 0.00 68 1026.9
20181018123517 41 292 1.0 4.0 0.00 0.00 0.00 69 1026.9
20181018122522 41 292 2.0 10.0 0.00 0.00 0.00 71 1026.9
20181018121522 40 292 2.0 6.0 0.00 0.00 0.00 74 1026.7
20181018120521 40 292 2.0 5.0 0.00 0.00 0.00 75 1026.4
20181018115520 39 0.0 0.0 0.00 0.00 0.00 75 1026.4
20181018114522 39 0.0 1.0 0.00 0.00 0.00 76 1026.0
20181018113522 39 0.0 0.0 0.00 0.00 0.00 75 1025.8
20181018112517 38 0.0 2.0 0.00 0.00 0.00 75 1025.5
20181018111522 38 0.0 3.0 0.00 0.00 0.00 74 1025.2
20181018110521 38 0.0 0.0 0.00 0.00 0.00 72 1025.2
20181018105522 39 0.0 1.0 0.00 0.00 0.00 71 1025.0
20181018104520 39 0.0 2.0 0.00 0.00 0.00 71 1024.9
20181018103522 39 0.0 2.0 0.00 0.00 0.00 70 1024.9
20181018102522 40 292 1.0 5.0 0.00 0.00 0.00 69 1024.9
20181018101517 40 270 1.0 6.0 0.00 0.00 0.00 68 1024.8
20181018100521 40 292 1.0 6.0 0.00 0.00 0.00 67 1024.6
20181018100021 40 292 2.0 8.0 0.00 0.00 0.00 67 1024.3
20181018095022 40 292 3.0 7.0 0.00 0.00 0.00 66 1024.2
20181018094022 41 270 3.0 7.0 0.00 0.00 0.00 66 1024.2
20181018093022 41 270 3.0 8.0 0.00 0.00 0.00 66 1024.0
20181018092022 41 270 2.0 7.0 0.00 0.00 0.00 65 1023.7
20181018091017 41 247 2.0 6.0 0.00 0.00 0.00 64 1023.5
20181018090023 41 270 2.0 7.0 0.00 0.00 0.00 63 1023.4
20181018085022 42 292 3.0 7.0 0.00 0.00 0.00 61 1023.2
20181018084022 42 292 4.0 9.0 0.00 0.00 0.00 61 1022.9
20181018083022 42 270 4.0 9.0 0.00 0.00 0.00 62 1022.9
20181018082022 42 247 2.0 8.0 0.00 0.00 0.00 64 1022.8
20181018081022 42 270 2.0 6.0 0.00 0.00 0.00 61 1022.6
20181018080021 42 292 3.0 9.0 0.00 0.00 0.00 60 1022.6
20181018075022 43 292 3.0 10.0 0.00 0.00 0.00 57 1022.7
20181018074022 43 292 5.0 9.0 0.00 0.00 0.00 56 1022.5
20181018073022 44 292 7.0 19.0 0.00 0.00 0.00 57 1022.5
20181018072022 43 292 5.0 21.0 0.00 0.00 0.00 60 1022.4
20181018071021 44 292 2.0 6.0 0.00 0.00 0.00 60 1022.3
20181018070022 44 292 6.0 13.0 0.00 0.00 0.00 58 1022.2
20181018065017 44 270 4.0 10.0 0.00 0.00 0.00 58 1021.9
20181018064022 45 292 6.0 12.0 0.00 0.00 0.00 58 1021.9
20181018063021 45 292 6.0 12.0 0.00 0.00 0.00 59 1021.7
20181018062022 44 292 3.0 9.0 0.00 0.00 0.00 61 1021.6
20181018061021 44 270 3.0 8.0 0.00 0.00 0.00 61 1021.5
20181018060021 44 270 2.0 7.0 0.00 0.00 0.00 61 1021.2
20181018055022 44 270 3.0 7.0 0.00 0.00 0.00 60 1021.1
20181018054017 45 270 1.0 5.0 0.00 0.00 0.00 61 1021.1
20181018053021 45 270 3.0 7.0 0.00 0.00 0.00 60 1021.2
20181018052023 45 292 1.0 5.0 0.00 0.00 0.00 62 1021.1
20181018051021 46 292 3.0 7.0 0.00 0.00 0.00 61 1021.0
20181018050023 46 270 2.0 7.0 0.00 0.00 0.00 61 1020.9
20181018045022 47 292 3.0 11.0 0.00 0.00 0.00 60 1020.8
20181018044022 47 292 3.0 9.0 0.00 0.00 0.00 59 1020.6
20181018043017 47 292 6.0 15.0 0.00 0.00 0.00 58 1020.5
20181018042022 48 292 6.0 11.0 0.00 0.00 0.00 57 1020.5
20181018041021 48 292 6.0 12.0 0.00 0.00 0.00 58 1020.3
20181018040022 48 292 3.0 9.0 0.00 0.00 0.00 58 1020.0
20181018035022 48 292 3.0 7.0 0.00 0.00 0.00 58 1019.9
20181018034022 48 270 3.0 7.0 0.00 0.00 0.00 56 1019.6
20181018033022 49 292 3.0 10.0 0.00 0.00 0.00 54 1019.6
20181018032018 50 292 5.0 13.0 0.00 0.00 0.00 53 1019.4
20181018031017 50 270 6.0 19.0 0.00 0.00 0.00 52 1019.3
20181018030022 50 292 7.0 14.0 0.00 0.00 0.00 51 1019.1
20181018025022 51 292 6.0 11.0 0.00 0.00 0.00 50 1018.9
20181018024022 51 270 9.0 22.0 0.00 0.00 0.00 50 1019.1
20181018023022 51 270 6.0 22.0 0.00 0.00 0.00 53 1018.9
20181018022022 51 292 6.0 12.0 0.00 0.00 0.00 53 1018.7
20181018021027 52 292 7.0 13.0 0.00 0.00 0.00 52 1018.6
20181018020022 52 292 6.0 20.0 0.00 0.00 0.00 54 1018.5
20181018015022 52 292 5.0 11.0 0.00 0.00 0.00 55 1018.3
20181018014022 52 292 5.0 18.0 0.00 0.00 0.00 55 1018.0
20181018013022 52 292 6.0 13.0 0.00 0.00 0.00 53 1017.9
20181018012022 53 270 5.0 11.0 0.00 0.00 0.00 53 1017.8
20181018011022 53 292 5.0 15.0 0.00 0.00 0.00 52 1017.5
20181018010017 53 292 7.0 14.0 0.00 0.00 0.00 50 1017.3
20181018005017 53 292 9.0 19.0 0.00 0.00 0.00 49 1017.0
20181018004018 54 292 9.0 26.0 0.00 0.00 0.00 48 1016.8
20181018003022 54 292 12.0 25.0 0.00 0.00 0.00 47 1016.6
20181018002022 54 292 12.0 28.0 0.00 0.00 0.00 47 1016.5
20181018001022 55 292 7.0 19.0 0.00 0.00 0.00 50 1016.4